Terminal Aerodrome Forecast
Issued by NWS

Home | Current Version | Previous Version | Graphics & Text | Print | Product List | Glossary On
Versions: 1 2 3 4 5 6 7 8 9 10 11 12 13 14 15 16 17 18 19 20 21 22 23 24 25 26 27 28
551
FTUS43 KABR 232327
TAFMBG
TAF
KMBG 232327Z 2400/2424 04008KT P6SM -SHRA OVC035
     FM240200 03010KT P6SM OVC015
     FM241200 36012KT 4SM -SHRA OVC007=

USA.gov is the U.S. government's official web portal to all federal, state and local government web resources and services.